Creek Data

    Home     View Charts     View Raw Data     Messages

ID Distance Battery Voltage Battery Current Internal Temp Internal Humidity External Temp Solar Input rssi snr Time Stamp Record
32273 0.0 3.82 0 59 39 57 5.1 -85 9 02/13/2025 03:45 PM 13944
32272 0.0 3.82 0 59 38 58 5.1 -91 8 02/13/2025 03:30 PM 13943
32271 0.0 3.81 0 61 36 58 5.1 -86 8 02/13/2025 03:15 PM 13942
32270 0.0 3.81 0 59 38 59 5.1 -85 7 02/13/2025 03:00 PM 13941
32269 0.0 3.82 0 58 38 57 5.1 -93 7 02/13/2025 02:45 PM 13940
32268 0.0 3.81 0 58 38 57 5.1 -90 8 02/13/2025 02:30 PM 13939
32267 0.0 4.03 0 56 38 57 5.1 -92 6 02/13/2025 02:15 PM 13938
32266 0.0 3.81 0 55 39 56 5.1 -93 6 02/13/2025 02:00 PM 13937
32265 0.0 3.81 0 54 39 55 5.1 -86 8 02/13/2025 01:45 PM 13936
32264 0.0 3.94 30 53 40 55 4.5 -89 5 02/13/2025 01:30 PM 13935
32263 13.6 3.85 15 53 40 54 4.5 -90 6 02/13/2025 01:15 PM 13934
32262 1.6 3.80 0 55 40 55 5.1 -81 8 02/13/2025 12:45 PM 13932
32261 0.0 3.92 0 56 40 56 5.1 -81 8 02/13/2025 12:30 PM 13931
32260 0.0 3.80 0 58 40 58 5.1 -87 6 02/13/2025 12:15 PM 13930
32259 0.0 3.80 0 59 39 59 5.1 -93 6 02/13/2025 12:01 PM 13929
32258 0.0 3.95 0 60 39 59 5.1 -84 8 02/13/2025 11:45 AM 13928
32257 0.0 3.80 0 60 39 59 5.1 -83 9 02/13/2025 11:30 AM 13927
32256 13.7 3.80 0 60 38 59 5.1 -90 7 02/13/2025 11:15 AM 13926
32255 13.8 3.80 0 61 38 59 5.1 -87 8 02/13/2025 11:00 AM 13925
32254 13.9 3.81 0 62 37 60 5.1 -84 8 02/13/2025 10:45 AM 13924
32253 13.9 3.81 0 60 39 59 5.1 -83 7 02/13/2025 10:30 AM 13923
32252 13.8 3.81 0 57 41 59 5.1 -88 5 02/13/2025 10:15 AM 13922
32251 13.8 3.81 0 56 41 57 5.1 -99 5 02/13/2025 10:00 AM 13921
32250 13.8 3.87 0 56 40 57 5.1 -94 5 02/13/2025 09:45 AM 13920
32249 0.0 3.82 0 55 40 55 5.1 -95 6 02/13/2025 09:30 AM 13919